Time,TemperatureF,DewpointF,PressureIn,WindDirection,WindDirectionDegrees,WindSpeedMPH,WindSpeedGustMPH,Humidity,HourlyPrecipIn,Conditions,Clouds,dailyrainin,SoftwareType,DateUTC
2013-10-15 00:00:00,47.3,42.7,29.76,WNW,290,21.0,21.0,84,0.00,,,1.40,Wunderground v.1.15,2013-10-15 05:00:00,
2013-10-15 00:05:00,47.3,42.7,29.76,WNW,290,20.0,30.0,84,0.00,,,1.40,Wunderground v.1.15,2013-10-15 05:05:00,
2013-10-15 00:10:00,47.2,42.6,29.76,West,277,18.0,30.0,84,0.00,,,1.40,Wunderground v.1.15,2013-10-15 05:10:00,
2013-10-15 00:20:00,47.1,42.5,29.77,West,274,18.0,18.0,84,0.00,,,1.40,Wunderground v.1.15,2013-10-15 05:20:00,
2013-10-15 00:25:00,47.0,42.4,29.77,West,273,18.0,30.0,84,0.00,,,1.40,Wunderground v.1.15,2013-10-15 05:25:00,
2013-10-15 00:35:00,47.0,42.4,29.77,WNW,284,18.0,30.0,84,0.00,,,1.40,Wunderground v.1.15,2013-10-15 05:35:00,
2013-10-15 00:45:00,46.9,42.3,29.78,West,271,19.0,22.0,84,0.00,,,1.40,Wunderground v.1.15,2013-10-15 05:45:00,
2013-10-15 00:50:00,46.8,42.2,29.78,West,273,18.0,30.0,84,0.00,,,1.40,Wunderground v.1.15,2013-10-15 05:50:00,
2013-10-15 01:00:00,46.7,42.1,29.79,West,275,19.0,30.0,84,0.00,,,0.00,Wunderground v.1.15,2013-10-15 06:00:00,
2013-10-15 01:10:00,46.5,41.9,29.79,WNW,296,18.0,30.0,84,0.00,,,0.00,Wunderground v.1.15,2013-10-15 06:10:00,
2013-10-15 01:20:00,46.3,41.7,29.80,WNW,282,20.0,20.0,84,0.00,,,0.00,Wunderground v.1.15,2013-10-15 06:20:00,
2013-10-15 01:25:00,46.3,41.7,29.80,West,278,19.0,30.0,84,0.00,,,0.00,Wunderground v.1.15,2013-10-15 06:25:00,
2013-10-15 01:35:00,46.0,41.1,29.81,West,275,19.0,30.0,83,0.00,,,0.00,Wunderground v.1.15,2013-10-15 06:35:00,
2013-10-15 01:45:00,45.8,40.9,29.82,WNW,286,19.0,30.0,83,0.00,,,0.00,Wunderground v.1.15,2013-10-15 06:45:00,
2013-10-15 01:50:00,45.6,40.4,29.81,WNW,287,19.0,19.0,82,0.00,,,0.00,Wunderground v.1.15,2013-10-15 06:50:00,
2013-10-15 02:00:00,45.4,39.6,29.81,WNW,294,22.0,30.0,80,0.00,,,0.00,Wunderground v.1.15,2013-10-15 07:00:00,
2013-10-15 02:10:00,45.1,39.6,29.82,West,277,20.0,20.0,81,0.00,,,0.00,Wunderground v.1.15,2013-10-15 07:10:00,
2013-10-15 02:20:00,45.0,39.5,29.82,WNW,288,20.0,20.0,81,0.00,,,0.00,Wunderground v.1.15,2013-10-15 07:20:00,
2013-10-15 02:30:00,44.5,39.0,29.82,WNW,287,19.0,30.0,81,0.00,,,0.00,Wunderground v.1.15,2013-10-15 07:30:00,
2013-10-15 02:35:00,44.2,39.1,29.83,WNW,286,20.0,30.0,82,0.00,,,0.00,Wunderground v.1.15,2013-10-15 07:35:00,
2013-10-15 02:40:00,44.0,38.9,29.83,WNW,289,19.0,19.0,82,0.00,,,0.00,Wunderground v.1.15,2013-10-15 07:40:00,
2013-10-15 02:50:00,43.6,38.5,29.83,West,278,17.0,30.0,82,0.00,,,0.00,Wunderground v.1.15,2013-10-15 07:50:00,
2013-10-15 03:00:00,43.2,38.1,29.84,WNW,282,19.0,19.0,82,0.00,,,0.00,Wunderground v.1.15,2013-10-15 08:00:00,
2013-10-15 03:10:00,43.0,38.2,29.84,West,276,18.0,18.0,83,0.00,,,0.00,Wunderground v.1.15,2013-10-15 08:10:00,
2013-10-15 03:20:00,42.7,37.6,29.85,West,264,19.0,19.0,82,0.00,,,0.00,Wunderground v.1.15,2013-10-15 08:20:00,
2013-10-15 03:25:00,42.6,37.5,29.85,WNW,282,20.0,20.0,82,0.00,,,0.00,Wunderground v.1.15,2013-10-15 08:25:00,
2013-10-15 03:35:00,42.5,38.9,29.85,West,269,18.0,30.0,87,0.00,,,0.00,Wunderground v.1.15,2013-10-15 08:35:00,
2013-10-15 03:40:00,42.3,37.2,29.85,West,275,19.0,30.0,82,0.00,,,0.00,Wunderground v.1.15,2013-10-15 08:40:00,
2013-10-15 03:50:00,42.0,36.9,29.85,WNW,284,20.0,30.0,82,0.00,,,0.00,Wunderground v.1.15,2013-10-15 08:50:00,
2013-10-15 04:00:00,41.8,37.0,29.86,West,279,20.0,20.0,83,0.00,,,0.00,Wunderground v.1.15,2013-10-15 09:00:00,
2013-10-15 04:10:00,41.6,36.5,29.86,West,271,19.0,30.0,82,0.00,,,0.00,Wunderground v.1.15,2013-10-15 09:10:00,
2013-10-15 04:15:00,41.5,36.4,29.86,WNW,290,21.0,30.0,82,0.00,,,0.00,Wunderground v.1.15,2013-10-15 09:15:00,
2013-10-15 04:25:00,41.4,36.3,29.87,West,281,19.0,23.0,82,0.00,,,0.00,Wunderground v.1.15,2013-10-15 09:25:00,
2013-10-15 04:30:00,41.3,36.2,29.87,West,276,21.0,30.0,82,0.00,,,0.00,Wunderground v.1.15,2013-10-15 09:30:00,
2013-10-15 04:40:00,41.1,36.0,29.87,WNW,284,24.0,24.0,82,0.00,,,0.00,Wunderground v.1.15,2013-10-15 09:40:00,
2013-10-15 04:50:00,41.0,36.2,29.88,West,265,19.0,30.0,83,0.00,,,0.00,Wunderground v.1.15,2013-10-15 09:50:00,
2013-10-15 04:55:00,40.9,36.1,29.88,West,281,19.0,30.0,83,0.00,,,0.00,Wunderground v.1.15,2013-10-15 09:55:00,
2013-10-15 05:05:00,40.3,35.2,29.88,West,275,22.0,30.0,82,0.00,,,0.00,Wunderground v.1.15,2013-10-15 10:05:00,
2013-10-15 05:15:00,40.2,35.4,29.88,West,275,21.0,30.0,83,0.00,,,0.00,Wunderground v.1.15,2013-10-15 10:15:00,
2013-10-15 05:20:00,40.2,35.4,29.88,West,279,20.0,20.0,83,0.00,,,0.00,Wunderground v.1.15,2013-10-15 10:20:00,
2013-10-15 05:30:00,39.9,35.2,29.88,WNW,303,22.0,22.0,83,0.00,,,0.00,Wunderground v.1.15,2013-10-15 10:30:00,
2013-10-15 05:40:00,39.9,35.2,29.88,West,280,19.0,30.0,83,0.00,,,0.00,Wunderground v.1.15,2013-10-15 10:40:00,
2013-10-15 05:50:00,39.7,35.0,29.88,West,281,19.0,30.0,83,0.00,,,0.00,Wunderground v.1.15,2013-10-15 10:50:00,
2013-10-15 05:55:00,39.7,34.7,29.89,WNW,284,22.0,30.0,82,0.00,,,0.00,Wunderground v.1.15,2013-10-15 10:55:00,
2013-10-15 06:00:00,39.6,34.6,29.89,WNW,289,22.0,22.0,82,0.00,,,0.00,Wunderground v.1.15,2013-10-15 11:00:00,
2013-10-15 06:10:00,39.5,34.5,29.89,West,281,23.0,30.0,82,0.00,,,0.00,Wunderground v.1.15,2013-10-15 11:10:00,
2013-10-15 06:20:00,39.4,34.4,29.90,WNW,288,21.0,21.0,82,0.00,,,0.00,Wunderground v.1.15,2013-10-15 11:20:00,
2013-10-15 06:30:00,39.4,34.4,29.90,West,280,22.0,30.0,82,0.00,,,0.00,Wunderground v.1.15,2013-10-15 11:30:00,
2013-10-15 06:35:00,39.3,34.6,29.90,WNW,284,21.0,30.0,83,0.00,,,0.00,Wunderground v.1.15,2013-10-15 11:35:00,